Time;durP1;ratioP1;P1;durP2;ratioP2;P2;SDS_P1;SDS_P2;PMS_P1;PMS_P2;Temp;Humidity;BMP_temperature;BMP_pressure;BME280_temperature;BME280_humidity;BME280_pressure;Samples;Min_cycle;Max_cycle;Signal;HPM_P1;HPM_P2
2023/03/05 00:01:04;;;;;;;;;;;;;;;5.97;92.66;94764.63;5034598;28;998;-54
2023/03/05 00:03:30;;;;;;;;;;;;;;;5.91;92.87;94763.34;5034463;28;986;-54
2023/03/05 00:05:56;;;;;;;;;;;;;;;6.04;92.27;94763.09;5034435;28;1073;-54
2023/03/05 00:08:22;;;;;;;;;;;;;;;6.15;91.97;94768.25;5034594;28;1036;-54
2023/03/05 00:10:58;;;;;;;;;;;;;;;6.12;92.10;94762.38;5034305;28;1069;-54
2023/03/05 00:13:24;;;;;;;;;;;;;;;6.10;92.57;94754.53;5034335;28;1894;-54
2023/03/05 00:15:50;;;;;;;;;;;;;;;6.22;92.44;94750.75;5034241;28;1048;-54
2023/03/05 00:18:17;;;;;;;;;;;;;;;6.34;91.92;94750.59;5034477;28;954;-54
2023/03/05 00:20:43;;;;;;;;;;;;;;;6.40;91.73;94742.03;5034165;28;1073;-54
2023/03/05 00:23:09;;;;;;;;;;;;;;;6.36;92.44;94751.28;5034262;28;1010;-54
2023/03/05 00:25:35;;;;;;;;;;;;;;;6.29;92.65;94740.38;5034133;28;1093;-54
2023/03/05 00:28:01;;;;;;;;;;;;;;;6.36;92.32;94741.47;5034047;28;1108;-54
2023/03/05 00:30:27;;;;;;;;;;;;;;;6.43;91.47;94739.06;5033830;28;1233;-54
2023/03/05 00:32:53;;;;;;;;;;;;;;;6.51;91.90;94736.53;5033885;28;1988;-54
2023/03/05 00:35:20;;;;;;;;;;;;;;;6.56;92.29;94730.78;5034121;28;1044;-54
2023/03/05 00:37:46;;;;;;;;;;;;;;;6.46;92.23;94730.81;5034075;28;1037;-54
2023/03/05 00:40:12;;;;;;;;;;;;;;;6.30;92.73;94720.84;5033872;28;1881;-54
2023/03/05 00:42:38;;;;;;;;;;;;;;;6.23;92.98;94719.72;5033876;28;1029;-54
2023/03/05 00:45:05;;;;;;;;;;;;;;;6.30;93.18;94722.63;5033763;28;1033;-54
2023/03/05 00:47:31;;;;;;;;;;;;;;;6.33;92.94;94717.88;5033735;28;1105;-54
2023/03/05 00:49:57;;;;;;;;;;;;;;;6.28;93.52;94713.97;5033846;28;1033;-54
2023/03/05 00:52:23;;;;;;;;;;;;;;;6.43;93.15;94725.78;5033237;28;1989;-54
2023/03/05 00:54:49;;;;;;;;;;;;;;;6.55;92.76;94719.31;5033824;28;990;-54
2023/03/05 00:57:15;;;;;;;;;;;;;;;6.51;92.92;94715.28;5033704;28;1057;-54
2023/03/05 00:59:41;;;;;;;;;;;;;;;6.40;93.57;94712.81;5033588;28;1040;-54
2023/03/05 01:02:07;;;;;;;;;;;;;;;6.33;93.45;94706.41;5033552;28;1112;-54
2023/03/05 01:04:33;;;;;;;;;;;;;;;6.37;93.43;94707.78;5033516;28;1275;-54
2023/03/05 01:06:59;;;;;;;;;;;;;;;6.48;93.18;94712.09;5033639;28;1002;-54
2023/03/05 01:09:26;;;;;;;;;;;;;;;6.52;93.24;94708.16;5033568;28;902;-54
2023/03/05 01:11:52;;;;;;;;;;;;;;;6.52;93.52;94703.66;5033479;28;1910;-54
2023/03/05 01:14:19;;;;;;;;;;;;;;;6.54;93.69;94703.53;5033392;28;951;-54
2023/03/05 01:16:46;;;;;;;;;;;;;;;6.52;93.65;94697.53;5033643;28;966;-54
2023/03/05 01:19:13;;;;;;;;;;;;;;;6.50;93.74;94702.97;5033364;28;1070;-54
2023/03/05 01:21:39;;;;;;;;;;;;;;;6.44;93.67;94699.09;5033448;28;1053;-54
2023/03/05 01:24:05;;;;;;;;;;;;;;;6.38;93.07;94699.69;5033478;28;1109;-54
2023/03/05 01:26:31;;;;;;;;;;;;;;;6.39;93.27;94698.72;5033404;28;1029;-53
2023/03/05 01:28:58;;;;;;;;;;;;;;;6.39;93.32;94693.41;5033248;28;1025;-54
2023/03/05 01:31:24;;;;;;;;;;;;;;;6.41;93.50;94691.44;5033072;28;1221;-54
2023/03/05 01:33:50;;;;;;;;;;;;;;;6.40;93.35;94695.06;5033165;28;2047;-54
2023/03/05 01:36:17;;;;;;;;;;;;;;;6.35;92.91;94689.34;5033027;28;1140;-54
2023/03/05 01:38:43;;;;;;;;;;;;;;;6.35;92.74;94699.97;5033214;28;1859;-55
2023/03/05 01:41:10;;;;;;;;;;;;;;;6.10;92.55;94693.50;5033168;28;1940;-55
2023/03/05 01:43:36;;;;;;;;;;;;;;;5.98;93.25;94694.69;5033131;28;1054;-55
2023/03/05 01:46:21;;;;;;;;;;;;;;;5.90;93.20;94690.06;5033148;28;1129;-55
2023/03/05 01:48:49;;;;;;;;;;;;;;;5.76;94.36;94693.16;5033268;28;966;-53
2023/03/05 01:51:16;;;;;;;;;;;;;;;5.84;94.93;94690.59;5033214;28;974;-54
2023/03/05 01:53:42;;;;;;;;;;;;;;;6.05;93.87;94686.00;5033082;28;1914;-55
2023/03/05 01:56:08;;;;;;;;;;;;;;;6.22;93.07;94683.53;5033019;28;1034;-55
2023/03/05 01:58:34;;;;;;;;;;;;;;;6.25;92.95;94684.09;5033289;28;1033;-55
2023/03/05 02:01:00;;;;;;;;;;;;;;;6.22;92.89;94686.19;5033219;28;1010;-55
2023/03/05 02:03:26;;;;;;;;;;;;;;;6.29;93.19;94681.97;5033657;28;937;-55
2023/03/05 02:05:52;;;;;;;;;;;;;;;6.35;92.84;94681.38;5036852;28;966;-55
2023/03/05 02:08:20;;;;;;;;;;;;;;;6.36;93.25;94683.06;5036784;28;1048;-55
2023/03/05 02:10:55;;;;;;;;;;;;;;;6.38;93.43;94683.75;5036686;28;1017;-55
2023/03/05 02:13:22;;;;;;;;;;;;;;;6.37;93.37;94679.41;5036710;28;1989;-55
2023/03/05 02:15:49;;;;;;;;;;;;;;;6.40;93.41;94675.66;5036539;28;1101;-55
2023/03/05 02:18:15;;;;;;;;;;;;;;;6.36;93.92;94683.06;5036509;28;1042;-54
2023/03/05 02:20:47;;;;;;;;;;;;;;;6.39;93.64;94679.28;5036550;28;1056;-55
2023/03/05 02:23:13;;;;;;;;;;;;;;;6.37;94.17;94682.06;5036523;28;1025;-55
2023/03/05 02:25:39;;;;;;;;;;;;;;;6.45;93.64;94678.69;5036336;28;978;-55
2023/03/05 02:28:05;;;;;;;;;;;;;;;6.51;93.26;94685.25;5036569;28;1046;-55
2023/03/05 02:30:31;;;;;;;;;;;;;;;6.45;93.91;94687.50;5036133;28;1090;-55
2023/03/05 02:32:58;;;;;;;;;;;;;;;6.44;94.20;94685.81;5036316;28;1914;-55
2023/03/05 02:35:24;;;;;;;;;;;;;;;6.33;93.63;94685.19;5036197;28;1106;-54
2023/03/05 02:37:50;;;;;;;;;;;;;;;6.34;93.73;94687.69;5036213;28;1065;-54
2023/03/05 02:40:16;;;;;;;;;;;;;;;6.36;93.68;94682.25;5036064;28;986;-55
2023/03/05 02:42:43;;;;;;;;;;;;;;;6.42;93.48;94677.16;5036333;28;1001;-55
2023/03/05 02:45:09;;;;;;;;;;;;;;;6.51;93.58;94680.75;5036207;28;1049;-55
2023/03/05 02:47:36;;;;;;;;;;;;;;;6.58;93.27;94687.16;5036144;28;1057;-55
2023/03/05 02:50:03;;;;;;;;;;;;;;;6.54;93.11;94679.63;5036061;28;1006;-55
2023/03/05 02:52:30;;;;;;;;;;;;;;;6.54;93.34;94675.13;5035828;28;1988;-55
2023/03/05 02:54:56;;;;;;;;;;;;;;;6.51;93.14;94678.09;5035863;28;1037;-55
2023/03/05 02:57:22;;;;;;;;;;;;;;;6.47;93.25;94671.41;5035780;28;1295;-55
2023/03/05 02:59:48;;;;;;;;;;;;;;;6.23;93.86;94671.94;5035953;28;970;-54
2023/03/05 03:02:14;;;;;;;;;;;;;;;6.27;94.03;94670.66;5018128;28;1096;-54
2023/03/05 03:04:40;;;;;;;;;;;;;;;6.36;93.78;94675.09;5035776;28;1045;-55
2023/03/05 03:07:06;;;;;;;;;;;;;;;6.38;93.38;94670.47;5035638;28;1060;-55
2023/03/05 03:09:33;;;;;;;;;;;;;;;6.34;93.66;94668.28;5035498;28;1062;-55
2023/03/05 03:11:59;;;;;;;;;;;;;;;6.28;94.37;94663.53;5035707;28;1914;-55
2023/03/05 03:14:25;;;;;;;;;;;;;;;6.25;94.50;94668.16;5035160;28;982;-54
2023/03/05 03:16:51;;;;;;;;;;;;;;;6.22;94.17;94665.81;5035424;28;1313;-54
2023/03/05 03:19:17;;;;;;;;;;;;;;;6.18;94.61;94660.91;5035400;28;1074;-54
2023/03/05 03:21:43;;;;;;;;;;;;;;;6.25;94.56;94665.50;5035422;28;1064;-55
2023/03/05 03:24:09;;;;;;;;;;;;;;;6.37;93.78;94666.13;5035212;28;1037;-55
2023/03/05 03:26:35;;;;;;;;;;;;;;;6.30;93.87;94662.41;5035504;28;1048;-54
2023/03/05 03:29:01;;;;;;;;;;;;;;;6.17;94.54;94661.91;5035205;28;1101;-54
2023/03/05 03:31:27;;;;;;;;;;;;;;;6.14;94.92;94670.16;5035110;28;1102;-55
2023/03/05 03:33:54;;;;;;;;;;;;;;;6.19;94.72;94665.25;5035010;28;1910;-54
2023/03/05 03:36:20;;;;;;;;;;;;;;;6.32;94.21;94664.91;5035091;28;970;-54
2023/03/05 03:38:46;;;;;;;;;;;;;;;6.33;94.54;94664.75;5034962;28;1144;-54
2023/03/05 03:41:12;;;;;;;;;;;;;;;6.34;94.22;94662.97;5034977;28;1054;-55
2023/03/05 03:43:38;;;;;;;;;;;;;;;6.39;94.13;94660.69;5034871;28;1077;-54
2023/03/05 03:46:06;;;;;;;;;;;;;;;6.51;94.17;94653.38;5034868;28;1062;-54
2023/03/05 03:48:32;;;;;;;;;;;;;;;6.57;94.16;94658.09;5034828;28;1062;-54
2023/03/05 03:50:58;;;;;;;;;;;;;;;6.49;93.89;94658.84;5034780;28;1101;-54
2023/03/05 03:53:24;;;;;;;;;;;;;;;6.35;94.71;94664.63;5034603;28;1983;-54
2023/03/05 03:55:50;;;;;;;;;;;;;;;6.23;94.84;94656.03;5034911;28;1045;-54
2023/03/05 03:58:16;;;;;;;;;;;;;;;6.33;94.59;94659.44;5034808;28;1150;-54
2023/03/05 04:00:42;;;;;;;;;;;;;;;6.45;94.58;94660.13;5034590;28;1047;-54
2023/03/05 04:03:08;;;;;;;;;;;;;;;6.53;94.27;94662.84;5034511;28;1117;-55
2023/03/05 04:05:34;;;;;;;;;;;;;;;6.53;93.99;94659.38;5034440;28;986;-55
2023/03/05 04:08:00;;;;;;;;;;;;;;;6.50;94.44;94657.81;5034361;28;1162;-55
2023/03/05 04:10:26;;;;;;;;;;;;;;;6.36;94.98;94655.69;5034588;28;966;-55
2023/03/05 04:12:52;;;;;;;;;;;;;;;6.29;95.38;94658.06;5034438;28;1906;-55
2023/03/05 04:15:18;;;;;;;;;;;;;;;6.31;95.38;94664.06;5034422;28;1041;-54
2023/03/05 04:17:44;;;;;;;;;;;;;;;6.37;94.53;94660.81;5034217;28;1061;-54
2023/03/05 04:20:11;;;;;;;;;;;;;;;6.41;94.32;94659.56;5034203;28;1046;-55
2023/03/05 04:22:37;;;;;;;;;;;;;;;6.34;94.63;94661.13;5034132;28;1005;-54
2023/03/05 04:25:07;;;;;;;;;;;;;;;6.28;95.04;94656.44;5034120;28;1121;-54
2023/03/05 04:27:33;;;;;;;;;;;;;;;6.33;95.04;94655.97;5033785;28;1052;-54
2023/03/05 04:29:59;;;;;;;;;;;;;;;6.36;94.64;94656.50;5033854;28;1241;-55
2023/03/05 04:32:28;;;;;;;;;;;;;;;6.35;94.21;94660.13;5034017;28;1910;-55
2023/03/05 04:34:55;;;;;;;;;;;;;;;6.32;94.58;94647.19;5034052;28;998;-54
2023/03/05 04:37:21;;;;;;;;;;;;;;;6.30;94.59;94643.84;5033789;28;1038;-54
2023/03/05 04:39:47;;;;;;;;;;;;;;;6.26;95.08;94650.44;5034125;28;1045;-55
2023/03/05 04:42:13;;;;;;;;;;;;;;;6.37;95.31;94647.53;5034014;28;1052;-55
2023/03/05 04:44:39;;;;;;;;;;;;;;;6.40;95.39;94646.44;5033934;28;954;-55
2023/03/05 04:47:05;;;;;;;;;;;;;;;6.39;95.82;94642.09;5033798;28;978;-55
2023/03/05 04:49:31;;;;;;;;;;;;;;;6.36;95.91;94650.38;5033747;28;969;-55
2023/03/05 04:51:57;;;;;;;;;;;;;;;6.35;96.44;94644.22;5033637;28;1049;-55
2023/03/05 04:54:23;;;;;;;;;;;;;;;6.31;96.76;94650.81;5033835;28;1902;-55
2023/03/05 04:56:49;;;;;;;;;;;;;;;6.45;96.29;94649.50;5033760;28;1040;-55
2023/03/05 04:59:15;;;;;;;;;;;;;;;6.37;96.33;94647.53;5033555;28;1046;-54
2023/03/05 05:01:42;;;;;;;;;;;;;;;6.36;96.40;94645.06;5033673;28;1009;-55
2023/03/05 05:04:08;;;;;;;;;;;;;;;6.48;96.34;94646.53;5033467;28;1347;-55
2023/03/05 05:06:34;;;;;;;;;;;;;;;6.50;95.69;94651.69;5033421;28;958;-55
2023/03/05 05:09:00;;;;;;;;;;;;;;;6.42;95.95;94639.97;5033630;28;971;-55
2023/03/05 05:11:26;;;;;;;;;;;;;;;6.34;96.80;94649.69;5033603;28;1093;-54
2023/03/05 05:13:52;;;;;;;;;;;;;;;6.29;97.08;94650.13;5033490;28;1898;-55
2023/03/05 05:16:18;;;;;;;;;;;;;;;6.22;97.91;94659.66;5033486;28;1057;-55
2023/03/05 05:18:44;;;;;;;;;;;;;;;6.39;97.54;94653.56;5033440;28;1061;-55
2023/03/05 05:21:11;;;;;;;;;;;;;;;6.44;96.55;94655.78;5033258;28;1028;-54
2023/03/05 05:23:38;;;;;;;;;;;;;;;6.32;97.39;94659.59;5033546;28;981;-54
2023/03/05 05:26:05;;;;;;;;;;;;;;;6.29;97.77;94655.41;5033478;28;1057;-55
2023/03/05 05:28:32;;;;;;;;;;;;;;;6.37;97.60;94663.47;5033223;28;1082;-55
2023/03/05 05:30:58;;;;;;;;;;;;;;;6.43;97.43;94664.72;5033058;28;1122;-55
2023/03/05 05:33:24;;;;;;;;;;;;;;;6.37;98.26;94671.44;5033120;28;1918;-55
2023/03/05 05:35:50;;;;;;;;;;;;;;;6.31;98.14;94674.69;5033094;28;1066;-54
2023/03/05 05:38:16;;;;;;;;;;;;;;;6.32;98.37;94667.56;5035518;28;985;-54
2023/03/05 05:40:42;;;;;;;;;;;;;;;6.36;97.86;94669.78;5037384;28;997;-55
2023/03/05 05:43:08;;;;;;;;;;;;;;;6.53;97.38;94677.97;5037263;28;977;-55
2023/03/05 05:45:36;;;;;;;;;;;;;;;6.59;96.59;94677.38;5037095;28;1078;-55
2023/03/05 05:48:02;;;;;;;;;;;;;;;6.67;96.36;94680.09;5037026;28;1066;-54
2023/03/05 05:50:28;;;;;;;;;;;;;;;6.57;96.72;94689.97;5036901;28;1058;-55
2023/03/05 05:52:54;;;;;;;;;;;;;;;6.63;96.53;94684.06;5036904;28;1902;-55
2023/03/05 05:55:20;;;;;;;;;;;;;;;6.67;96.55;94688.06;5036854;28;1217;-55
2023/03/05 05:57:46;;;;;;;;;;;;;;;6.57;96.82;94684.66;5036856;28;1915;-55
2023/03/05 06:00:13;;;;;;;;;;;;;;;6.59;96.67;94691.47;5036862;28;1994;-55
2023/03/05 06:02:39;;;;;;;;;;;;;;;6.67;97.12;94696.03;5036736;28;1046;-55
2023/03/05 06:05:06;;;;;;;;;;;;;;;6.75;96.66;94698.78;5036653;28;970;-55
2023/03/05 06:07:35;;;;;;;;;;;;;;;6.69;96.78;94696.72;5036914;28;962;-55
2023/03/05 06:10:02;;;;;;;;;;;;;;;6.66;96.74;94697.03;5036615;28;1104;-55
2023/03/05 06:12:28;;;;;;;;;;;;;;;6.64;96.83;94705.16;5036539;28;1902;-55
2023/03/05 06:14:54;;;;;;;;;;;;;;;6.65;96.76;94698.84;5019093;28;967;-55
2023/03/05 06:17:20;;;;;;;;;;;;;;;6.79;96.66;94700.19;5036554;28;979;-55
2023/03/05 06:19:46;;;;;;;;;;;;;;;6.91;96.30;94707.94;5036431;28;1040;-55
2023/03/05 06:22:12;;;;;;;;;;;;;;;6.89;95.00;94702.78;5036614;28;1058;-55
2023/03/05 06:24:38;;;;;;;;;;;;;;;6.79;95.00;94704.63;5036572;28;1045;-55
2023/03/05 06:27:04;;;;;;;;;;;;;;;6.76;95.95;94711.09;5036235;28;1113;-55
2023/03/05 06:29:30;;;;;;;;;;;;;;;6.76;96.26;94705.78;5036163;28;1121;-55
2023/03/05 06:31:56;;;;;;;;;;;;;;;6.83;95.33;94708.69;5036193;28;1229;-55
2023/03/05 06:34:22;;;;;;;;;;;;;;;6.97;95.39;94710.00;5036098;28;1993;-55
2023/03/05 06:36:48;;;;;;;;;;;;;;;7.03;94.37;94717.38;5036374;28;998;-55
2023/03/05 06:39:15;;;;;;;;;;;;;;;7.01;95.14;94717.50;5036289;28;970;-55
2023/03/05 06:41:41;;;;;;;;;;;;;;;7.02;95.75;94721.84;5036237;28;1048;-55
2023/03/05 06:44:07;;;;;;;;;;;;;;;7.00;96.83;94718.50;5036101;28;1040;-55
2023/03/05 06:46:34;;;;;;;;;;;;;;;6.99;96.67;94723.97;5036015;28;965;-55
2023/03/05 06:49:00;;;;;;;;;;;;;;;7.01;96.58;94735.28;5035028;28;1001;-55
2023/03/05 06:51:29;;;;;;;;;;;;;;;6.96;97.36;94732.25;5036128;28;1033;-55
2023/03/05 06:53:58;;;;;;;;;;;;;;;7.02;96.70;94739.63;5035956;28;1907;-55
2023/03/05 06:56:24;;;;;;;;;;;;;;;7.04;96.95;94740.31;5035911;28;1034;-55
2023/03/05 06:58:50;;;;;;;;;;;;;;;7.01;96.84;94737.94;5035859;28;1133;-55
2023/03/05 07:01:16;;;;;;;;;;;;;;;6.96;97.08;94737.56;5035777;28;1018;-55
2023/03/05 07:03:43;;;;;;;;;;;;;;;6.86;97.59;94740.28;5035605;28;1036;-55
2023/03/05 07:06:11;;;;;;;;;;;;;;;6.95;97.09;94741.22;5035867;28;998;-55
2023/03/05 07:08:37;;;;;;;;;;;;;;;6.98;96.67;94741.75;5035750;28;1017;-55
2023/03/05 07:11:08;;;;;;;;;;;;;;;7.00;96.73;94736.25;5035500;28;1083;-55
2023/03/05 07:13:34;;;;;;;;;;;;;;;7.07;96.33;94742.66;5035534;28;1910;-54
2023/03/05 07:16:04;;;;;;;;;;;;;;;7.09;95.46;94742.53;5035441;28;1048;-55
2023/03/05 07:18:30;;;;;;;;;;;;;;;7.04;96.09;94745.63;5035480;28;1017;-55
2023/03/05 07:21:00;;;;;;;;;;;;;;;7.12;95.37;94743.06;5035332;28;1243;-55
2023/03/05 07:23:26;;;;;;;;;;;;;;;7.00;95.62;94747.75;5035524;28;1068;-55
2023/03/05 07:25:52;;;;;;;;;;;;;;;7.03;96.67;94743.94;5035335;28;994;-55
2023/03/05 07:28:18;;;;;;;;;;;;;;;7.14;95.89;94751.72;5035330;28;1076;-55
2023/03/05 07:30:44;;;;;;;;;;;;;;;7.22;95.69;94746.47;5034909;28;1149;-55
2023/03/05 07:33:10;;;;;;;;;;;;;;;7.32;94.47;94748.22;5035242;28;1988;-55
2023/03/05 07:35:38;;;;;;;;;;;;;;;7.28;95.15;94745.03;5035030;28;1061;-55
2023/03/05 07:38:04;;;;;;;;;;;;;;;7.23;94.98;94745.50;5035182;28;979;-55
2023/03/05 07:40:30;;;;;;;;;;;;;;;7.21;95.35;94742.16;5035069;28;1030;-55
2023/03/05 07:42:56;;;;;;;;;;;;;;;7.24;95.59;94749.00;5035055;28;1076;-55
2023/03/05 07:45:22;;;;;;;;;;;;;;;7.33;95.28;94744.59;5034830;28;983;-55
2023/03/05 07:47:48;;;;;;;;;;;;;;;7.42;95.01;94738.38;5034817;28;1206;-55
2023/03/05 07:50:15;;;;;;;;;;;;;;;7.50;94.40;94743.75;5034966;28;942;-55
2023/03/05 07:52:41;;;;;;;;;;;;;;;7.61;93.38;94750.69;5034597;28;1910;-55
2023/03/05 07:55:07;;;;;;;;;;;;;;;7.62;92.00;94744.38;5034814;28;1061;-56
2023/03/05 07:57:36;;;;;;;;;;;;;;;7.73;91.64;94736.16;5034675;28;978;-54
2023/03/05 08:00:03;;;;;;;;;;;;;;;7.86;91.49;94745.56;5034455;28;1042;-55
2023/03/05 08:02:29;;;;;;;;;;;;;;;8.04;89.16;94738.38;5034550;28;1062;-56
2023/03/05 08:04:55;;;;;;;;;;;;;;;8.04;86.36;94742.88;5034641;28;963;-55
2023/03/05 08:07:21;;;;;;;;;;;;;;;8.05;84.85;94737.41;5017093;28;1018;-56
2023/03/05 08:09:47;;;;;;;;;;;;;;;8.08;82.62;94738.91;5034525;28;1142;-54
2023/03/05 08:12:13;;;;;;;;;;;;;;;8.21;82.42;94741.97;5016788;28;1991;-53
2023/03/05 08:14:39;;;;;;;;;;;;;;;8.21;81.93;94739.31;5034262;28;1034;-54
2023/03/05 08:17:06;;;;;;;;;;;;;;;8.16;82.52;94738.97;5034240;28;1089;-54
2023/03/05 08:19:32;;;;;;;;;;;;;;;8.27;82.62;94741.38;5034403;28;1033;-54
2023/03/05 08:21:58;;;;;;;;;;;;;;;8.39;81.83;94741.94;5034181;28;1920;-53
2023/03/05 08:24:28;;;;;;;;;;;;;;;8.49;81.58;94740.03;5034294;28;950;-54
2023/03/05 08:26:55;;;;;;;;;;;;;;;8.64;80.82;94734.94;5034198;28;1029;-54
2023/03/05 08:29:21;;;;;;;;;;;;;;;8.69;77.20;94732.63;5034006;28;1014;-54
2023/03/05 08:31:48;;;;;;;;;;;;;;;8.66;79.79;94737.44;5033855;28;1102;-54
2023/03/05 08:34:14;;;;;;;;;;;;;;;8.73;75.70;94733.97;5034135;28;1910;-54
2023/03/05 08:36:41;;;;;;;;;;;;;;;8.78;78.98;94731.69;5033959;28;1115;-54
2023/03/05 08:39:08;;;;;;;;;;;;;;;8.98;77.17;94728.75;5033906;28;1037;-54
2023/03/05 08:41:35;;;;;;;;;;;;;;;9.10;75.33;94735.44;5034415;28;1065;-54
2023/03/05 08:44:01;;;;;;;;;;;;;;;9.08;76.40;94729.44;5033732;28;997;-54
2023/03/05 08:46:27;;;;;;;;;;;;;;;9.16;77.77;94733.94;5034008;28;1048;-55
2023/03/05 08:48:53;;;;;;;;;;;;;;;9.35;74.64;94732.81;5033942;28;1053;-55
2023/03/05 08:51:21;;;;;;;;;;;;;;;9.10;73.22;94732.78;5033835;28;998;-54
2023/03/05 08:53:47;;;;;;;;;;;;;;;9.12;74.88;94730.78;5033604;28;1907;-55
2023/03/05 08:56:13;;;;;;;;;;;;;;;9.10;74.15;94730.09;5033722;28;1034;-55
2023/03/05 08:58:39;;;;;;;;;;;;;;;9.07;75.13;94721.59;5016036;28;1129;-55
2023/03/05 09:01:06;;;;;;;;;;;;;;;9.14;74.03;94719.94;5033806;28;970;-55
2023/03/05 09:03:32;;;;;;;;;;;;;;;9.15;75.88;94719.78;5016010;28;1098;-55
2023/03/05 09:05:59;;;;;;;;;;;;;;;9.21;77.89;94715.63;5033651;28;1061;-55
2023/03/05 09:08:25;;;;;;;;;;;;;;;9.32;76.99;94719.84;5033468;28;1050;-55
2023/03/05 09:10:52;;;;;;;;;;;;;;;9.47;73.66;94715.53;5016018;28;1022;-56
2023/03/05 09:13:18;;;;;;;;;;;;;;;9.65;72.66;94722.53;5032842;28;1910;-56
2023/03/05 09:15:44;;;;;;;;;;;;;;;9.58;70.90;94717.88;5033397;28;1070;-56
2023/03/05 09:18:10;;;;;;;;;;;;;;;9.48;72.76;94716.34;5033388;28;1105;-56
2023/03/05 09:20:37;;;;;;;;;;;;;;;9.27;70.87;94714.97;5033521;28;1002;-56
2023/03/05 09:23:03;;;;;;;;;;;;;;;9.20;71.15;94713.97;5033312;28;1043;-56
2023/03/05 09:25:29;;;;;;;;;;;;;;;9.23;72.62;94713.63;5033375;28;982;-56
2023/03/05 09:31:17;;;;;;;;;;;;;;;9.32;70.51;94711.84;5033330;28;1104;-56
2023/03/05 09:33:43;;;;;;;;;;;;;;;9.37;72.64;94709.50;5033263;28;1910;-56
2023/03/05 09:36:17;;;;;;;;;;;;;;;9.48;73.16;94713.69;5033126;28;1108;-56
2023/03/05 09:38:43;;;;;;;;;;;;;;;9.59;71.59;94713.34;5033458;28;1014;-56
2023/03/05 09:41:25;;;;;;;;;;;;;;;9.71;71.46;94698.69;5033148;28;1053;-56
2023/03/05 09:44:09;;;;;;;;;;;;;;;9.85;70.27;94705.19;5033329;28;1029;-56
2023/03/05 09:46:55;;;;;;;;;;;;;;;9.88;68.75;94694.16;5033157;28;1013;-56
2023/03/05 09:49:30;;;;;;;;;;;;;;;9.95;68.81;94691.66;5033159;28;1140;-56
2023/03/05 09:52:01;;;;;;;;;;;;;;;9.93;70.31;94696.34;5033258;28;1017;-56
2023/03/05 09:54:36;;;;;;;;;;;;;;;9.84;68.28;94695.50;5033088;28;2001;-56
2023/03/05 09:57:04;;;;;;;;;;;;;;;9.74;69.25;94694.84;5033085;28;1033;-56
2023/03/05 09:59:42;;;;;;;;;;;;;;;9.81;68.65;94695.00;5033008;28;1059;-54
2023/03/05 10:02:20;;;;;;;;;;;;;;;9.84;70.54;94692.00;5033223;28;1025;-55
2023/03/05 10:04:46;;;;;;;;;;;;;;;9.92;70.04;94695.50;5032988;28;1050;-55
2023/03/05 10:07:12;;;;;;;;;;;;;;;9.66;68.61;94692.19;5032965;28;1058;-55
2023/03/05 10:09:38;;;;;;;;;;;;;;;9.61;67.41;94684.66;5032801;28;1152;-53
2023/03/05 10:12:26;;;;;;;;;;;;;;;9.62;67.06;94678.34;5033058;28;1052;-54
2023/03/05 10:14:53;;;;;;;;;;;;;;;9.56;69.90;94671.84;5033097;28;1033;-54
2023/03/05 10:17:32;;;;;;;;;;;;;;;9.63;72.31;94673.81;5032379;28;1093;-54
2023/03/05 10:20:02;;;;;;;;;;;;;;;9.38;72.80;94673.81;5030022;28;1309;-55
2023/03/05 10:22:47;;;;;;;;;;;;;;;9.25;74.12;94663.63;5032263;28;1181;-55
2023/03/05 10:25:13;;;;;;;;;;;;;;;9.27;72.97;94666.13;5034608;28;974;-56
2023/03/05 10:27:48;;;;;;;;;;;;;;;9.36;73.13;94665.16;5036448;28;970;-56
2023/03/05 10:30:23;;;;;;;;;;;;;;;9.35;71.93;94653.66;5035954;28;1271;-56
2023/03/05 10:32:59;;;;;;;;;;;;;;;9.39;72.87;94656.81;5035988;28;1914;-56
2023/03/05 10:35:44;;;;;;;;;;;;;;;9.37;71.97;94646.31;5036217;28;966;-55
2023/03/05 10:38:19;;;;;;;;;;;;;;;9.35;73.06;94647.47;5036038;28;1045;-56
2023/03/05 10:40:47;;;;;;;;;;;;;;;9.31;73.20;94641.63;5035937;28;1105;-56
2023/03/05 10:43:16;;;;;;;;;;;;;;;9.34;73.08;94635.13;5036034;28;970;-55
2023/03/05 10:45:44;;;;;;;;;;;;;;;9.22;72.24;94637.31;5036045;28;1138;-56
2023/03/05 10:48:14;;;;;;;;;;;;;;;9.25;71.28;94634.28;5035523;28;2750;-55
2023/03/05 10:50:46;;;;;;;;;;;;;;;9.19;72.60;94626.94;5034267;28;2512;-55
2023/03/05 10:53:15;;;;;;;;;;;;;;;9.11;73.66;94621.63;5035691;28;1910;-55
2023/03/05 10:55:41;;;;;;;;;;;;;;;9.23;71.73;94616.78;5035712;28;1050;-55
2023/03/05 10:58:12;;;;;;;;;;;;;;;9.15;70.12;94615.78;5036031;28;962;-56
2023/03/05 11:00:39;;;;;;;;;;;;;;;9.32;71.13;94610.47;5035516;28;1113;-56
2023/03/05 11:03:06;;;;;;;;;;;;;;;9.54;71.51;94608.94;5036022;28;1032;-56
2023/03/05 11:05:32;;;;;;;;;;;;;;;9.67;68.87;94603.91;5035522;28;1069;-56
2023/03/05 11:07:58;;;;;;;;;;;;;;;9.53;67.75;94605.44;5035670;28;982;-56
2023/03/05 11:10:24;;;;;;;;;;;;;;;9.55;67.27;94598.09;5035785;28;1037;-55
2023/03/05 11:12:53;;;;;;;;;;;;;;;9.71;69.25;94589.25;5035503;28;1992;-55
2023/03/05 11:15:25;;;;;;;;;;;;;;;9.80;68.89;94591.91;5035662;28;1211;-55
2023/03/05 11:18:05;;;;;;;;;;;;;;;9.81;68.76;94588.22;5035428;28;1181;-55
2023/03/05 11:20:35;;;;;;;;;;;;;;;9.87;68.75;94584.88;5035555;28;914;-54
2023/03/05 11:23:13;;;;;;;;;;;;;;;9.96;67.14;94581.19;5035033;28;1090;-55
2023/03/05 11:25:57;;;;;;;;;;;;;;;10.01;68.46;94573.47;5035302;28;1082;-53
2023/03/05 11:28:23;;;;;;;;;;;;;;;10.15;67.35;94571.94;5044479;28;1178;-56
2023/03/05 11:31:06;;;;;;;;;;;;;;;10.15;64.98;94563.94;5039159;28;1257;-56
2023/03/05 11:33:33;;;;;;;;;;;;;;;10.30;67.65;94559.56;5035215;28;2027;-55
2023/03/05 11:36:32;;;;;;;;;;;;;;;10.40;68.29;94554.00;5048831;28;1907;-55
2023/03/05 11:39:07;;;;;;;;;;;;;;;10.47;67.40;94549.63;5032039;28;1263;-55
2023/03/05 11:41:36;;;;;;;;;;;;;;;10.52;67.63;94544.56;5046560;28;1091;-55
2023/03/05 11:44:04;;;;;;;;;;;;;;;10.58;67.51;94537.69;5034611;28;1151;-55
2023/03/05 11:46:36;;;;;;;;;;;;;;;10.61;66.24;94532.00;5034911;28;1034;-56
2023/03/05 11:49:02;;;;;;;;;;;;;;;10.66;66.22;94528.78;5034663;28;1077;-55
2023/03/05 11:51:35;;;;;;;;;;;;;;;10.74;66.57;94521.56;5034483;28;1156;-55
2023/03/05 11:54:06;;;;;;;;;;;;;;;10.61;66.15;94517.81;5034639;28;1906;-56
2023/03/05 11:56:35;;;;;;;;;;;;;;;10.65;66.03;94508.41;5035101;28;1029;-56
2023/03/05 11:59:01;;;;;;;;;;;;;;;10.58;65.33;94510.13;5034459;28;1594;-57
2023/03/05 12:01:29;;;;;;;;;;;;;;;10.58;66.36;94505.59;5040851;28;1515;-57
2023/03/05 12:03:56;;;;;;;;;;;;;;;10.68;65.66;94500.88;5034120;28;1109;-57
2023/03/05 12:06:27;;;;;;;;;;;;;;;10.65;64.71;94495.88;5033875;28;1122;-56
2023/03/05 12:08:55;;;;;;;;;;;;;;;10.59;65.17;94493.91;5034153;28;1334;-57
2023/03/05 12:11:25;;;;;;;;;;;;;;;10.63;65.27;94497.06;5033725;28;1507;-56
2023/03/05 12:13:53;;;;;;;;;;;;;;;10.56;64.60;94494.25;5034056;28;1965;-56
2023/03/05 12:16:27;;;;;;;;;;;;;;;10.54;65.95;94490.94;5034438;28;969;-56
2023/03/05 12:18:56;;;;;;;;;;;;;;;10.65;65.30;94490.53;5034295;28;978;-57
2023/03/05 12:21:25;;;;;;;;;;;;;;;10.58;65.09;94484.22;5033979;28;1010;-57
2023/03/05 12:23:51;;;;;;;;;;;;;;;10.75;65.09;94479.59;5034317;28;1013;-57
2023/03/05 12:26:17;;;;;;;;;;;;;;;10.67;61.77;94477.00;5034067;28;1054;-57
2023/03/05 12:28:48;;;;;;;;;;;;;;;10.68;61.75;94467.94;5034195;28;1076;-57
2023/03/05 12:31:33;;;;;;;;;;;;;;;10.81;62.53;94470.03;5033808;28;1264;-57
2023/03/05 12:33:59;;;;;;;;;;;;;;;10.75;61.78;94468.91;5033634;28;1983;-57
2023/03/05 12:36:32;;;;;;;;;;;;;;;10.78;63.53;94465.88;5034101;28;1041;-56
2023/03/05 12:38:58;;;;;;;;;;;;;;;10.83;64.31;94470.69;5033996;28;982;-54
2023/03/05 12:41:24;;;;;;;;;;;;;;;10.91;64.55;94463.44;5033959;28;1249;-54
2023/03/05 12:44:05;;;;;;;;;;;;;;;10.90;62.87;94463.59;5033653;28;1050;-55
2023/03/05 12:46:38;;;;;;;;;;;;;;;10.94;61.86;94463.06;5033416;28;979;-54
2023/03/05 12:49:17;;;;;;;;;;;;;;;10.89;62.46;94467.31;5032821;28;1589;-55
2023/03/05 12:51:44;;;;;;;;;;;;;;;10.86;62.37;94464.97;5033708;28;978;-56
2023/03/05 12:54:16;;;;;;;;;;;;;;;10.86;63.45;94455.09;5033371;28;1993;-56
2023/03/05 12:56:44;;;;;;;;;;;;;;;10.73;63.61;94457.56;5033616;28;1020;-56
2023/03/05 12:59:10;;;;;;;;;;;;;;;10.73;60.19;94461.03;5032756;28;2637;-55
2023/03/05 13:01:44;;;;;;;;;;;;;;;10.75;59.37;94459.03;5047926;28;2938;-56
2023/03/05 13:04:20;;;;;;;;;;;;;;;10.84;58.14;94454.47;5053401;28;1028;-56
2023/03/05 13:06:56;;;;;;;;;;;;;;;10.71;58.51;94459.56;5049196;28;1041;-55
2023/03/05 13:09:23;;;;;;;;;;;;;;;10.55;59.76;94457.88;5024593;28;2909;-56
2023/03/05 13:11:50;;;;;;;;;;;;;;;10.60;58.39;94455.47;5033615;28;1069;-56
2023/03/05 13:14:34;;;;;;;;;;;;;;;10.75;58.71;94453.69;5033400;28;1979;-56